Time;durP1;ratioP1;P1;durP2;ratioP2;P2;SDS_P1;SDS_P2;PMS_P1;PMS_P2;Temp;Humidity;BMP_temperature;BMP_pressure;BME280_temperature;BME280_humidity;BME280_pressure;Samples;Min_cycle;Max_cycle;Signal;HPM_P1;HPM_P2
2023/01/06 00:00:23;;;;;;;1.33;0.83;;;6.60;99.90;;;;;;5021521;28;20560;-76
2023/01/06 00:02:50;;;;;;;9.53;2.00;;;6.60;99.90;;;;;;5021140;28;20942;-76
2023/01/06 00:05:17;;;;;;;7.13;1.13;;;6.50;99.90;;;;;;5025071;28;20490;-76
2023/01/06 00:07:44;;;;;;;4.73;1.13;;;6.50;99.90;;;;;;5022987;28;20549;-76
2023/01/06 00:10:12;;;;;;;27.03;3.33;;;6.50;99.90;;;;;;5020864;28;20479;-76
2023/01/06 00:12:39;;;;;;;16.00;1.63;;;6.50;99.90;;;;;;5023227;28;20454;-76
2023/01/06 00:15:07;;;;;;;3.80;1.13;;;6.60;99.90;;;;;;5023089;28;20459;-76
2023/01/06 00:17:35;;;;;;;5.30;1.33;;;6.60;99.90;;;;;;5024823;28;20461;-76
2023/01/06 00:20:02;;;;;;;4.87;1.47;;;6.70;99.90;;;;;;5024644;28;20304;-76
2023/01/06 00:22:29;;;;;;;3.67;1.40;;;6.80;99.90;;;;;;5025501;28;20461;-76
2023/01/06 00:24:56;;;;;;;12.20;2.00;;;6.90;99.90;;;;;;5016989;28;20912;-76
2023/01/06 00:27:23;;;;;;;3.00;1.33;;;6.90;99.90;;;;;;5023744;28;20567;-76
2023/01/06 00:29:50;;;;;;;2.70;2.40;;;7.00;99.90;;;;;;5021844;28;20305;-76
2023/01/06 00:32:17;;;;;;;6.47;1.43;;;7.00;99.90;;;;;;5025272;28;20872;-76
2023/01/06 00:34:46;;;;;;;1.43;1.13;;;7.00;99.90;;;;;;5023736;28;20918;-76
2023/01/06 00:37:13;;;;;;;4.10;1.43;;;7.10;99.90;;;;;;5015644;28;20575;-76
2023/01/06 00:39:39;;;;;;;6.20;1.23;;;7.10;99.90;;;;;;5023902;28;20461;-76
2023/01/06 00:42:06;;;;;;;2.03;0.90;;;7.10;99.90;;;;;;5033432;28;20585;-76
2023/01/06 00:44:35;;;;;;;13.47;1.27;;;7.10;99.90;;;;;;5026274;28;20457;-76
2023/01/06 00:47:02;;;;;;;4.77;1.43;;;7.10;99.90;;;;;;5020619;28;20934;-76
2023/01/06 00:49:30;;;;;;;8.00;2.30;;;7.20;99.90;;;;;;5025297;28;20457;-76
2023/01/06 00:51:58;;;;;;;10.00;2.20;;;7.10;99.90;;;;;;5011558;28;20526;-76
2023/01/06 00:54:25;;;;;;;2.80;0.80;;;7.10;99.90;;;;;;5019553;28;20949;-76
2023/01/06 00:56:54;;;;;;;8.93;1.80;;;7.20;99.90;;;;;;5019036;28;20486;-76
2023/01/06 00:59:22;;;;;;;6.03;1.80;;;7.20;99.90;;;;;;5024745;28;20564;-76
2023/01/06 01:01:51;;;;;;;6.63;1.80;;;7.20;99.90;;;;;;5021883;28;20473;-76
2023/01/06 01:04:19;;;;;;;4.40;1.40;;;7.20;99.90;;;;;;5018185;28;20450;-76
2023/01/06 01:06:47;;;;;;;2.77;1.00;;;7.20;99.90;;;;;;5022009;28;20489;-76
2023/01/06 01:09:17;;;;;;;3.23;2.07;;;7.30;99.90;;;;;;5022513;28;20500;-76
2023/01/06 01:14:30;;;;;;;4.50;1.17;;;7.30;99.90;;;;;;5023388;28;20229;-76
2023/01/06 01:16:57;;;;;;;3.80;1.13;;;7.30;99.90;;;;;;5019213;28;20769;-76
2023/01/06 01:19:25;;;;;;;2.53;1.00;;;7.30;99.90;;;;;;5021721;28;20532;-76
2023/01/06 01:21:52;;;;;;;1.63;0.90;;;7.30;99.90;;;;;;5023456;28;20792;-76
2023/01/06 01:24:21;;;;;;;4.00;1.80;;;7.40;99.90;;;;;;5020716;28;20574;-76
2023/01/06 01:26:48;;;;;;;5.13;1.10;;;7.40;99.90;;;;;;5026855;28;20519;-76
2023/01/06 01:29:17;;;;;;;1.73;1.30;;;7.40;99.90;;;;;;5025835;28;20561;-76
2023/01/06 01:31:44;;;;;;;10.13;1.30;;;7.50;99.90;;;;;;5023526;28;20931;-76
2023/01/06 01:34:13;;;;;;;3.00;1.50;;;7.50;99.90;;;;;;5026965;28;20474;-76
2023/01/06 01:36:40;;;;;;;2.63;1.20;;;7.50;99.90;;;;;;5023065;28;20844;-76
2023/01/06 01:39:07;;;;;;;7.17;1.80;;;7.50;99.90;;;;;;5025861;28;20508;-76
2023/01/06 01:41:35;;;;;;;6.53;1.10;;;7.50;99.90;;;;;;5027373;28;20508;-76
2023/01/06 01:44:24;;;;;;;4.93;1.27;;;7.50;99.90;;;;;;5026026;28;20542;-76
2023/01/06 01:46:51;;;;;;;1.83;0.80;;;7.50;99.90;;;;;;5032311;28;20472;-76
2023/01/06 01:49:24;;;;;;;8.00;1.17;;;7.50;99.90;;;;;;5026676;28;20516;-76
2023/01/06 01:51:54;;;;;;;2.73;1.20;;;7.50;99.90;;;;;;5024700;28;20800;-76
2023/01/06 01:54:28;;;;;;;1.97;1.00;;;7.60;99.90;;;;;;5017394;28;20851;-76
2023/01/06 01:57:00;;;;;;;2.27;1.17;;;7.60;99.90;;;;;;5024225;28;20979;-76
2023/01/06 01:59:31;;;;;;;2.73;0.90;;;7.60;99.90;;;;;;5024968;28;20482;-76
2023/01/06 02:01:58;;;;;;;6.43;1.67;;;7.70;99.90;;;;;;5027684;28;20554;-76
2023/01/06 02:04:28;;;;;;;5.20;1.10;;;7.60;99.90;;;;;;5027866;28;20455;-76
2023/01/06 02:06:55;;;;;;;6.20;1.67;;;7.60;99.90;;;;;;5029599;28;20463;-76
2023/01/06 02:09:27;;;;;;;3.17;2.63;;;7.60;99.90;;;;;;5032626;28;20815;-76
2023/01/06 02:11:57;;;;;;;5.40;1.90;;;7.60;99.90;;;;;;5030863;28;20512;-76
2023/01/06 02:14:26;;;;;;;6.53;1.00;;;7.70;99.90;;;;;;5023428;28;20446;-76
2023/01/06 02:17:05;;;;;;;7.37;1.43;;;7.60;99.90;;;;;;5026315;28;20936;-76
2023/01/06 02:20:15;;;;;;;3.20;1.23;;;7.60;99.90;;;;;;5017721;28;20662;-76
2023/01/06 02:23:04;;;;;;;4.15;1.48;;;7.60;99.90;;;;;;5020977;28;21011;-76
2023/01/06 02:25:55;;;;;;;3.50;0.90;;;7.60;99.90;;;;;;5017501;28;20199;-76
2023/01/06 02:28:51;;;;;;;6.70;1.23;;;7.60;99.90;;;;;;5026146;28;20492;-76
2023/01/06 02:31:57;;;;;;;12.00;1.90;;;7.50;99.90;;;;;;5034163;28;20917;-76
2023/01/06 02:34:40;;;;;;;4.47;1.43;;;7.50;99.90;;;;;;5021454;28;20995;-76
2023/01/06 02:37:18;;;;;;;2.90;0.88;;;7.50;99.90;;;;;;5019137;28;20461;-76
2023/01/06 02:39:56;;;;;;;6.73;1.67;;;7.50;99.90;;;;;;5026427;28;20234;-76
2023/01/06 02:42:28;;;;;;;4.80;1.00;;;7.50;99.90;;;;;;5014781;28;20484;-76
2023/01/06 02:45:03;;;;;;;2.93;1.50;;;7.50;99.90;;;;;;5024821;28;20538;-76
2023/01/06 02:47:39;;;;;;;4.27;1.57;;;7.50;99.90;;;;;;5024452;28;21189;-76
2023/01/06 02:50:17;;;;;;;4.13;1.37;;;7.50;99.90;;;;;;5025131;28;20568;-76
2023/01/06 02:52:52;;;;;;;1.87;1.17;;;7.50;99.90;;;;;;5022600;28;20784;-76
2023/01/06 02:55:24;;;;;;;2.17;1.20;;;7.50;99.90;;;;;;5023091;28;20581;-76
2023/01/06 02:57:56;;;;;;;2.27;1.63;;;7.50;99.90;;;;;;5020897;28;20481;-76
2023/01/06 03:00:30;;;;;;;7.10;1.93;;;7.50;99.90;;;;;;5024341;28;20557;-76
2023/01/06 03:03:03;;;;;;;5.87;1.13;;;7.50;99.90;;;;;;5025778;28;20475;-76
2023/01/06 03:05:32;;;;;;;4.50;1.93;;;7.40;99.90;;;;;;5029102;28;20454;-76
2023/01/06 03:08:02;;;;;;;1.83;1.10;;;7.50;99.90;;;;;;5014111;28;20544;-76
2023/01/06 03:10:31;;;;;;;7.10;1.60;;;7.40;99.90;;;;;;5030686;28;20267;-76
2023/01/06 03:13:05;;;;;;;4.67;1.90;;;7.50;99.90;;;;;;5024533;28;20956;-76
2023/01/06 03:15:32;;;;;;;6.15;1.88;;;7.50;99.90;;;;;;5021984;28;20579;-76
2023/01/06 03:18:01;;;;;;;4.17;2.00;;;7.50;99.90;;;;;;5024220;28;20530;-76
2023/01/06 03:20:28;;;;;;;4.83;1.30;;;7.50;99.90;;;;;;5026223;28;20524;-76
2023/01/06 03:22:55;;;;;;;2.00;1.47;;;7.50;99.90;;;;;;5025243;28;20481;-76
2023/01/06 03:25:22;;;;;;;1.20;1.10;;;7.60;99.90;;;;;;5019827;28;20556;-76
2023/01/06 03:27:49;;;;;;;3.25;1.35;;;7.50;99.90;;;;;;5024541;28;20457;-76
2023/01/06 03:30:16;;;;;;;2.40;1.50;;;7.50;99.90;;;;;;5024803;28;20481;-76
2023/01/06 03:32:53;;;;;;;16.03;2.47;;;7.50;99.90;;;;;;5019588;28;20923;-76
2023/01/06 03:35:44;;;;;;;5.70;2.20;;;7.50;99.90;;;;;;5026576;28;20552;-76
2023/01/06 03:38:19;;;;;;;2.43;1.20;;;7.40;99.90;;;;;;5024061;28;20757;-77
2023/01/06 03:40:53;;;;;;;3.33;1.97;;;7.40;99.90;;;;;;5015088;28;20497;-76
2023/01/06 03:43:25;;;;;;;6.63;2.50;;;7.50;99.90;;;;;;5022174;28;20585;-75
2023/01/06 03:45:57;;;;;;;4.50;2.57;;;7.50;99.90;;;;;;5020910;28;20452;-74
2023/01/06 03:48:36;;;;;;;7.13;1.63;;;7.60;99.90;;;;;;5023968;28;21179;-74
2023/01/06 03:51:10;;;;;;;6.97;1.88;;;7.50;99.90;;;;;;5019637;28;21228;-75
2023/01/06 03:53:42;;;;;;;4.47;1.70;;;7.60;99.90;;;;;;5018806;28;20646;-75
2023/01/06 03:56:16;;;;;;;5.83;2.10;;;7.60;99.90;;;;;;5021706;28;20322;-75
2023/01/06 03:58:48;;;;;;;6.33;1.77;;;7.60;99.90;;;;;;5029973;28;20515;-74
2023/01/06 04:01:16;;;;;;;14.03;3.20;;;7.60;99.90;;;;;;5019883;28;20483;-74
2023/01/06 04:03:44;;;;;;;4.10;1.93;;;7.60;99.90;;;;;;5028515;28;20747;-74
2023/01/06 04:06:13;;;;;;;7.77;1.37;;;7.60;99.90;;;;;;5017311;28;20775;-74
2023/01/06 04:08:40;;;;;;;4.50;1.47;;;7.60;99.90;;;;;;5031834;28;21021;-74
2023/01/06 04:11:07;;;;;;;2.50;1.30;;;7.60;99.90;;;;;;5024048;28;20511;-74
2023/01/06 04:13:33;;;;;;;4.30;1.67;;;7.60;99.90;;;;;;5022083;28;20489;-74
2023/01/06 04:15:59;;;;;;;9.60;2.20;;;7.60;99.90;;;;;;5019551;28;20547;-74
2023/01/06 04:18:26;;;;;;;1.70;1.10;;;7.70;99.90;;;;;;5030541;28;20527;-74
2023/01/06 04:20:53;;;;;;;3.27;1.40;;;7.70;99.90;;;;;;5021939;28;20454;-74
2023/01/06 04:23:21;;;;;;;1.80;0.93;;;7.70;99.90;;;;;;5026153;28;20543;-74
2023/01/06 04:25:48;;;;;;;3.03;1.27;;;7.80;99.90;;;;;;5023308;28;20555;-75
2023/01/06 04:28:15;;;;;;;2.88;1.30;;;7.80;99.90;;;;;;5025472;28;20477;-74
2023/01/06 04:30:42;;;;;;;2.57;2.00;;;7.70;99.90;;;;;;5019616;28;20309;-75
2023/01/06 04:33:09;;;;;;;5.33;1.90;;;7.70;99.90;;;;;;5029381;28;20859;-75
2023/01/06 04:35:36;;;;;;;1.40;1.27;;;7.70;99.90;;;;;;5019989;28;20495;-75
2023/01/06 04:38:03;;;;;;;6.13;1.92;;;7.60;99.90;;;;;;5023810;28;20457;-75
2023/01/06 04:40:31;;;;;;;1.67;1.53;;;7.60;99.90;;;;;;5025557;28;20222;-75
2023/01/06 04:43:04;;;;;;;3.50;1.27;;;7.70;99.90;;;;;;5016893;28;20485;-75
2023/01/06 04:45:31;;;;;;;5.25;1.77;;;7.70;99.90;;;;;;5018634;28;20481;-75
2023/01/06 04:47:58;;;;;;;5.80;1.90;;;7.60;99.90;;;;;;5026946;28;20304;-74
2023/01/06 04:50:24;;;;;;;5.03;1.30;;;7.60;99.90;;;;;;5028849;28;20520;-74
2023/01/06 04:52:51;;;;;;;5.53;1.80;;;7.60;99.90;;;;;;5020121;28;21018;-75
2023/01/06 04:55:18;;;;;;;7.63;1.98;;;7.60;99.90;;;;;;5023023;28;20906;-74
2023/01/06 04:57:47;;;;;;;2.43;1.73;;;7.60;99.90;;;;;;5021079;28;20293;-74
2023/01/06 05:00:14;;;;;;;4.20;1.67;;;7.60;99.90;;;;;;5022475;28;20524;-74
2023/01/06 05:02:41;;;;;;;1.53;1.43;;;7.60;99.90;;;;;;5021686;28;21481;-74
2023/01/06 05:05:09;;;;;;;4.10;1.30;;;7.60;99.90;;;;;;5021776;28;20457;-74
2023/01/06 05:07:36;;;;;;;3.90;1.60;;;7.60;99.90;;;;;;5022124;28;20497;-74
2023/01/06 05:10:03;;;;;;;3.90;1.10;;;7.70;99.90;;;;;;5023392;28;20517;-74
2023/01/06 05:12:31;;;;;;;8.10;2.97;;;7.70;99.90;;;;;;5018878;28;20473;-74
2023/01/06 05:15:00;;;;;;;8.23;2.07;;;7.70;99.90;;;;;;5023802;28;20569;-74
2023/01/06 05:17:27;;;;;;;18.93;1.63;;;7.70;99.90;;;;;;5018443;28;20852;-74
2023/01/06 05:19:54;;;;;;;8.47;1.70;;;7.70;99.90;;;;;;5023631;28;20477;-74
2023/01/06 05:22:21;;;;;;;2.17;1.00;;;7.80;99.90;;;;;;5025740;28;21041;-75
2023/01/06 05:24:48;;;;;;;2.30;1.20;;;7.70;99.90;;;;;;5017786;28;20491;-74
2023/01/06 05:27:15;;;;;;;4.37;1.20;;;7.70;99.90;;;;;;5023037;28;20446;-74
2023/01/06 05:29:42;;;;;;;6.63;1.97;;;7.70;99.90;;;;;;5023363;28;20683;-74
2023/01/06 05:32:10;;;;;;;2.23;1.30;;;7.70;99.90;;;;;;5019405;28;21009;-75
2023/01/06 05:34:37;;;;;;;7.03;2.13;;;7.70;99.90;;;;;;5024573;28;20478;-75
2023/01/06 05:37:04;;;;;;;4.53;2.20;;;7.70;99.90;;;;;;5020705;28;20195;-75
2023/01/06 05:39:31;;;;;;;3.80;1.53;;;7.70;99.90;;;;;;5024989;28;20449;-75
2023/01/06 05:41:58;;;;;;;4.83;1.10;;;7.70;99.90;;;;;;5019399;28;20570;-75
2023/01/06 05:44:25;;;;;;;10.97;7.40;;;7.70;99.90;;;;;;5024460;28;21014;-75
2023/01/06 05:46:52;;;;;;;3.20;1.20;;;7.80;99.90;;;;;;5022918;28;20465;-74
2023/01/06 05:49:20;;;;;;;6.63;1.83;;;7.80;99.90;;;;;;5023013;28;20525;-75
2023/01/06 05:51:48;;;;;;;5.90;1.50;;;7.70;99.90;;;;;;5014731;28;20547;-74
2023/01/06 05:54:15;;;;;;;7.30;1.47;;;7.80;99.90;;;;;;5023388;28;20868;-74
2023/01/06 05:56:42;;;;;;;5.43;1.70;;;7.70;99.90;;;;;;5024599;28;20539;-75
2023/01/06 05:59:09;;;;;;;1.80;1.20;;;7.70;99.90;;;;;;5025989;28;20504;-74
2023/01/06 06:01:36;;;;;;;5.63;1.77;;;7.70;99.90;;;;;;5022521;28;20469;-74
2023/01/06 06:04:03;;;;;;;6.40;1.67;;;7.70;99.90;;;;;;5019532;28;20485;-75
2023/01/06 06:06:31;;;;;;;7.30;1.77;;;7.70;99.90;;;;;;5034101;28;20527;-75
2023/01/06 06:08:58;;;;;;;9.40;1.83;;;7.60;99.90;;;;;;5020348;28;20985;-75
2023/01/06 06:11:25;;;;;;;3.03;1.40;;;7.60;99.90;;;;;;5025202;28;20536;-75
2023/01/06 06:13:54;;;;;;;10.40;1.37;;;7.60;99.90;;;;;;5024558;28;20450;-75
2023/01/06 06:16:22;;;;;;;5.90;1.57;;;7.60;99.90;;;;;;5028041;28;20539;-75
2023/01/06 06:18:52;;;;;;;8.70;3.00;;;7.60;99.90;;;;;;5029293;28;20871;-75
2023/01/06 06:21:20;;;;;;;2.60;1.40;;;7.60;99.90;;;;;;5023186;28;20232;-75
2023/01/06 06:23:51;;;;;;;6.30;2.60;;;7.60;99.90;;;;;;5024241;28;20840;-75
2023/01/06 06:26:18;;;;;;;6.13;2.77;;;7.60;99.90;;;;;;5025922;28;20481;-74
2023/01/06 06:28:45;;;;;;;7.40;2.97;;;7.60;99.90;;;;;;5019176;28;21013;-75
2023/01/06 06:31:15;;;;;;;4.53;2.00;;;7.70;99.90;;;;;;5024525;28;21066;-74
2023/01/06 06:33:42;;;;;;;7.33;2.57;;;7.60;99.90;;;;;;5026982;28;20900;-75
2023/01/06 06:36:14;;;;;;;5.17;1.73;;;7.60;99.90;;;;;;5017286;28;20516;-75
2023/01/06 06:38:41;;;;;;;5.33;3.57;;;7.60;99.90;;;;;;5018770;28;20478;-75
2023/01/06 06:41:10;;;;;;;6.47;4.43;;;7.60;99.90;;;;;;5023379;28;20497;-74
2023/01/06 06:43:37;;;;;;;5.83;3.23;;;7.60;99.90;;;;;;5017138;28;20532;-74
2023/01/06 06:46:04;;;;;;;7.80;3.10;;;7.60;99.90;;;;;;5021217;28;20543;-75
2023/01/06 06:48:31;;;;;;;3.80;2.60;;;7.50;99.90;;;;;;5028469;28;20560;-75
2023/01/06 06:50:59;;;;;;;4.03;2.47;;;7.60;99.90;;;;;;5018948;28;20575;-75
2023/01/06 06:53:26;;;;;;;4.33;2.40;;;7.60;99.90;;;;;;5025554;28;21236;-75
2023/01/06 06:55:54;;;;;;;3.93;2.37;;;7.70;99.90;;;;;;5021123;28;20489;-75
2023/01/06 06:58:22;;;;;;;4.07;2.07;;;7.70;99.90;;;;;;5027233;28;20489;-75
2023/01/06 07:00:50;;;;;;;6.57;1.60;;;7.70;99.90;;;;;;5026837;28;20551;-74
2023/01/06 07:03:18;;;;;;;6.88;2.45;;;7.70;99.90;;;;;;5028772;28;20455;-74
2023/01/06 07:05:46;;;;;;;9.37;3.03;;;7.70;99.90;;;;;;5033547;28;20238;-74
2023/01/06 07:08:13;;;;;;;12.73;3.80;;;7.70;99.90;;;;;;5029272;28;20477;-75
2023/01/06 07:10:40;;;;;;;35.50;22.30;;;7.70;99.90;;;;;;5022512;28;20543;-74
2023/01/06 07:13:07;;;;;;;42.43;26.97;;;7.70;99.90;;;;;;5017182;28;20462;-75
2023/01/06 07:15:35;;;;;;;29.23;14.17;;;7.60;99.90;;;;;;5027661;28;20993;-74
2023/01/06 07:18:03;;;;;;;29.08;9.77;;;7.50;99.90;;;;;;5024531;28;20450;-74
2023/01/06 07:20:30;;;;;;;13.30;3.70;;;7.40;99.90;;;;;;5031565;28;20234;-74
2023/01/06 07:22:57;;;;;;;76.68;12.48;;;7.40;99.90;;;;;;5012769;28;20520;-75
2023/01/06 07:25:24;;;;;;;35.97;8.03;;;7.40;99.90;;;;;;5018386;28;20239;-74
2023/01/06 07:27:55;;;;;;;43.70;7.87;;;7.40;99.90;;;;;;5025465;28;20535;-74
2023/01/06 07:30:23;;;;;;;12.20;3.27;;;7.40;99.90;;;;;;5024160;28;20521;-75
2023/01/06 07:32:51;;;;;;;5.43;4.10;;;7.40;99.90;;;;;;5023548;28;20574;-75
2023/01/06 07:35:19;;;;;;;12.80;4.80;;;7.40;99.90;;;;;;5025815;28;20493;-74
2023/01/06 07:37:46;;;;;;;10.50;3.30;;;7.50;99.90;;;;;;5021341;28;20532;-74
2023/01/06 07:40:13;;;;;;;7.57;3.67;;;7.50;99.90;;;;;;5016858;28;20540;-75
2023/01/06 07:42:40;;;;;;;8.67;3.60;;;7.60;99.90;;;;;;5032343;28;20281;-75
2023/01/06 07:45:08;;;;;;;3.83;3.10;;;7.70;99.90;;;;;;5026050;28;20493;-75
2023/01/06 07:47:36;;;;;;;6.88;3.58;;;7.70;99.90;;;;;;5025591;28;20559;-75
2023/01/06 07:50:05;;;;;;;6.30;3.00;;;7.70;99.90;;;;;;5019810;28;20263;-75
2023/01/06 07:52:32;;;;;;;6.25;3.38;;;7.70;99.90;;;;;;5012054;28;20490;-75
2023/01/06 07:54:59;;;;;;;10.83;3.33;;;7.80;99.90;;;;;;5012953;28;20225;-75
2023/01/06 07:57:27;;;;;;;5.50;2.80;;;7.70;99.90;;;;;;5011706;28;20447;-74
2023/01/06 07:59:54;;;;;;;3.20;2.90;;;7.70;99.90;;;;;;5010962;28;20498;-75
2023/01/06 08:02:22;;;;;;;6.60;3.43;;;7.70;99.90;;;;;;5024878;28;20457;-75
2023/01/06 08:04:49;;;;;;;4.10;2.42;;;7.70;99.90;;;;;;5027717;28;20488;-75
2023/01/06 08:07:18;;;;;;;4.57;2.10;;;7.80;99.90;;;;;;5020588;28;20284;-75
2023/01/06 08:09:45;;;;;;;5.33;3.13;;;7.80;99.90;;;;;;5025613;28;21085;-75
2023/01/06 08:12:12;;;;;;;6.17;4.00;;;7.90;99.90;;;;;;5019656;28;20489;-75
2023/01/06 08:14:38;;;;;;;12.77;4.17;;;8.00;99.90;;;;;;5025626;28;21121;-75
2023/01/06 08:17:06;;;;;;;7.47;4.37;;;7.90;99.90;;;;;;5023892;28;20539;-74
2023/01/06 08:19:33;;;;;;;13.23;5.70;;;8.00;99.90;;;;;;5019718;28;20459;-75
2023/01/06 08:22:00;;;;;;;5.83;4.60;;;7.90;99.90;;;;;;5021569;28;20477;-75
2023/01/06 08:24:29;;;;;;;7.70;3.97;;;7.70;99.90;;;;;;5024322;28;20669;-75
2023/01/06 08:26:57;;;;;;;40.47;7.93;;;7.40;99.90;;;;;;5017766;28;20471;-75
2023/01/06 08:29:24;;;;;;;50.03;7.70;;;7.30;99.90;;;;;;5015964;28;20713;-75
2023/01/06 08:31:51;;;;;;;39.87;7.57;;;7.40;99.90;;;;;;5022737;28;20493;-75
2023/01/06 08:34:18;;;;;;;65.17;8.97;;;7.30;99.90;;;;;;5019651;28;20661;-75
2023/01/06 08:36:45;;;;;;;55.27;11.90;;;7.20;99.90;;;;;;5020230;28;20519;-77
2023/01/06 08:39:14;;;;;;;58.77;12.17;;;7.10;99.90;;;;;;5022674;28;20466;-77
2023/01/06 08:41:42;;;;;;;52.77;8.03;;;6.90;99.90;;;;;;5020688;28;20513;-76
2023/01/06 08:44:09;;;;;;;25.23;5.33;;;7.10;99.90;;;;;;5009149;28;20469;-75
2023/01/06 08:46:37;;;;;;;26.90;4.57;;;7.00;99.90;;;;;;5013579;28;20498;-75
2023/01/06 08:49:04;;;;;;;50.80;9.70;;;7.10;99.90;;;;;;5021579;28;20461;-75
2023/01/06 08:51:33;;;;;;;63.47;9.87;;;7.30;99.90;;;;;;5025338;28;20509;-75
2023/01/06 08:54:00;;;;;;;31.80;5.63;;;7.40;99.90;;;;;;5012587;28;20936;-75
2023/01/06 08:56:30;;;;;;;42.03;6.47;;;7.40;99.90;;;;;;5025448;28;20487;-75
2023/01/06 08:59:00;;;;;;;79.90;11.73;;;7.50;99.90;;;;;;5025388;28;20442;-75
2023/01/06 09:01:29;;;;;;;43.87;8.13;;;7.50;99.90;;;;;;5022968;28;20467;-75
2023/01/06 09:03:58;;;;;;;31.83;7.73;;;7.60;99.90;;;;;;5020162;28;20539;-75
2023/01/06 09:06:26;;;;;;;57.50;10.40;;;7.50;99.90;;;;;;5028543;28;20966;-75
2023/01/06 09:08:53;;;;;;;45.47;8.20;;;7.60;99.90;;;;;;5015497;28;20525;-75
2023/01/06 09:11:20;;;;;;;30.50;4.77;;;7.80;99.90;;;;;;5023456;28;20589;-75
2023/01/06 09:13:49;;;;;;;20.70;6.50;;;8.00;99.90;;;;;;5010848;28;20520;-75
2023/01/06 09:16:18;;;;;;;7.00;3.60;;;8.20;99.90;;;;;;5003843;28;20461;-75
2023/01/06 09:18:48;;;;;;;10.60;3.28;;;8.30;99.90;;;;;;5012554;28;20875;-75
2023/01/06 09:21:16;;;;;;;9.80;3.67;;;8.50;99.90;;;;;;5009196;28;20214;-75
2023/01/06 09:23:43;;;;;;;3.70;3.03;;;8.60;99.90;;;;;;5008069;28;20483;-75
2023/01/06 09:26:10;;;;;;;4.47;3.77;;;8.70;99.90;;;;;;5011480;28;20865;-75
2023/01/06 09:28:37;;;;;;;6.70;3.80;;;8.70;99.90;;;;;;5011082;28;20465;-75
2023/01/06 09:31:05;;;;;;;5.30;3.70;;;8.60;99.90;;;;;;5011875;28;20604;-75
2023/01/06 09:33:33;;;;;;;10.27;4.23;;;8.50;99.90;;;;;;5011594;28;20282;-75
2023/01/06 09:36:00;;;;;;;22.07;5.10;;;8.50;99.90;;;;;;5012924;28;20462;-75
2023/01/06 09:38:27;;;;;;;14.17;4.80;;;8.60;99.90;;;;;;5013973;28;20531;-75
2023/01/06 09:41:20;;;;;;;17.33;4.60;;;8.30;99.90;;;;;;5010978;28;20804;-75
2023/01/06 09:43:52;;;;;;;9.30;4.40;;;8.20;99.90;;;;;;5010543;28;20505;-75
2023/01/06 09:46:22;;;;;;;15.77;4.57;;;8.10;99.90;;;;;;5011544;28;20465;-75
2023/01/06 09:48:58;;;;;;;16.83;4.50;;;8.10;99.90;;;;;;5014627;28;20879;-75
2023/01/06 09:51:26;;;;;;;12.70;4.77;;;8.00;99.90;;;;;;5026998;28;20489;-75
2023/01/06 09:53:58;;;;;;;6.80;3.43;;;7.90;99.90;;;;;;5015979;28;20952;-76
2023/01/06 09:56:26;;;;;;;7.07;3.80;;;8.00;99.90;;;;;;5013166;28;20513;-75
2023/01/06 09:59:03;;;;;;;9.73;4.27;;;8.20;99.90;;;;;;5018093;28;20556;-75
2023/01/06 10:01:37;;;;;;;9.80;4.50;;;8.30;99.90;;;;;;5018359;28;20462;-75
2023/01/06 10:04:05;;;;;;;6.20;3.97;;;8.30;99.90;;;;;;5014711;28;20788;-75
2023/01/06 10:06:37;;;;;;;9.85;4.65;;;8.40;99.90;;;;;;5016501;28;20458;-75
2023/01/06 10:09:22;;;;;;;19.53;5.77;;;8.50;99.90;;;;;;5020993;28;20216;-75
2023/01/06 10:12:02;;;;;;;29.03;7.60;;;8.50;99.90;;;;;;5024760;28;20606;-75
2023/01/06 10:14:40;;;;;;;16.90;7.13;;;8.50;99.90;;;;;;5014171;28;20465;-77
2023/01/06 10:17:32;;;;;;;37.33;9.67;;;8.60;99.90;;;;;;5010908;28;20304;-76
2023/01/06 10:20:13;;;;;;;60.13;10.83;;;8.20;99.90;;;;;;5022745;28;20492;-76
2023/01/06 10:22:48;;;;;;;44.30;9.17;;;8.10;99.90;;;;;;5022413;28;20471;-76
2023/01/06 10:25:19;;;;;;;70.82;11.25;;;8.20;99.90;;;;;;5015028;28;20488;-75
2023/01/06 10:27:51;;;;;;;37.03;8.43;;;8.20;99.90;;;;;;5015744;28;20545;-77
2023/01/06 10:30:21;;;;;;;74.17;14.70;;;8.40;99.90;;;;;;5023063;28;20496;-75
2023/01/06 10:32:50;;;;;;;41.57;6.90;;;8.40;99.90;;;;;;5024914;28;20461;-75
2023/01/06 10:35:22;;;;;;;23.70;7.13;;;8.40;99.90;;;;;;5027489;28;20794;-75
2023/01/06 10:37:51;;;;;;;18.37;6.00;;;8.20;99.90;;;;;;5019401;28;21645;-75
2023/01/06 10:40:21;;;;;;;41.23;8.70;;;8.30;99.90;;;;;;5017614;28;20470;-75
2023/01/06 10:42:56;;;;;;;52.90;8.80;;;8.30;99.90;;;;;;5027213;28;20509;-75
2023/01/06 10:45:25;;;;;;;24.03;5.87;;;8.20;99.90;;;;;;5011847;28;20473;-75
2023/01/06 10:47:52;;;;;;;48.57;9.40;;;8.20;99.90;;;;;;5024346;28;20466;-75
2023/01/06 10:50:21;;;;;;;8.30;4.60;;;8.20;99.90;;;;;;5023998;28;20464;-75
2023/01/06 10:52:48;;;;;;;12.50;5.00;;;8.30;99.90;;;;;;5027587;28;20537;-75
2023/01/06 10:55:32;;;;;;;18.73;4.80;;;8.20;99.90;;;;;;5021960;28;20468;-75
2023/01/06 10:58:05;;;;;;;11.47;4.43;;;8.40;99.90;;;;;;5011225;28;20693;-75
2023/01/06 11:00:32;;;;;;;12.17;4.33;;;8.40;99.90;;;;;;5011274;28;20538;-75
2023/01/06 11:03:04;;;;;;;16.20;5.00;;;8.50;99.90;;;;;;5006970;28;21916;-75
2023/01/06 11:05:34;;;;;;;25.87;6.83;;;8.70;99.90;;;;;;5012425;28;20556;-75
2023/01/06 11:08:06;;;;;;;42.23;10.70;;;8.50;99.90;;;;;;5023834;28;20519;-75
2023/01/06 11:10:38;;;;;;;37.90;8.37;;;8.60;99.90;;;;;;5027268;28;20489;-75
2023/01/06 11:13:06;;;;;;;17.98;7.45;;;8.80;99.90;;;;;;5020773;28;20955;-75
2023/01/06 11:15:40;;;;;;;12.10;6.93;;;8.80;99.90;;;;;;5025755;28;20203;-75
2023/01/06 11:18:19;;;;;;;26.33;8.00;;;8.70;99.90;;;;;;5018453;28;20466;-75
2023/01/06 11:21:02;;;;;;;40.30;11.23;;;8.50;99.90;;;;;;5008694;28;20458;-75
2023/01/06 11:23:29;;;;;;;40.00;10.83;;;8.50;99.90;;;;;;5021892;28;21300;-75
2023/01/06 11:26:05;;;;;;;29.07;8.90;;;8.60;99.90;;;;;;5023033;28;20460;-75
2023/01/06 11:28:32;;;;;;;18.27;8.43;;;8.30;99.90;;;;;;5015023;28;20545;-77
2023/01/06 11:31:03;;;;;;;13.17;6.63;;;8.30;99.90;;;;;;5025690;28;21005;-75
2023/01/06 11:33:32;;;;;;;48.67;12.10;;;8.40;99.90;;;;;;5008527;28;21181;-75
2023/01/06 11:36:08;;;;;;;22.50;9.60;;;8.50;99.90;;;;;;5023945;28;20520;-76
2023/01/06 11:38:42;;;;;;;37.40;10.80;;;8.40;99.90;;;;;;5020917;28;20461;-77
2023/01/06 11:41:11;;;;;;;35.57;8.80;;;8.30;99.90;;;;;;5017986;28;20457;-77
2023/01/06 11:43:39;;;;;;;36.53;9.90;;;8.20;99.90;;;;;;5026956;28;20453;-77
2023/01/06 11:46:09;;;;;;;42.67;11.33;;;8.00;99.90;;;;;;5017656;28;20473;-77
2023/01/06 11:48:41;;;;;;;36.93;10.40;;;8.10;99.90;;;;;;5024802;28;20461;-80
2023/01/06 11:51:11;;;;;;;32.93;14.00;;;8.20;99.90;;;;;;5021575;28;20477;-81
2023/01/06 11:53:39;;;;;;;37.27;11.70;;;8.50;99.90;;;;;;5019149;28;20473;-76
2023/01/06 11:56:16;;;;;;;44.03;11.87;;;8.50;99.90;;;;;;5023504;28;20462;-75
2023/01/06 11:58:51;;;;;;;32.50;10.80;;;8.30;99.90;;;;;;5026796;28;21018;-75
2023/01/06 12:01:29;;;;;;;47.07;13.13;;;8.30;99.90;;;;;;5018517;28;20786;-75
2023/01/06 12:04:07;;;;;;;71.93;14.83;;;8.40;99.90;;;;;;5024416;28;20843;-75
2023/01/06 12:06:39;;;;;;;33.53;11.13;;;8.40;99.90;;;;;;5023208;28;21073;-75
2023/01/06 12:09:13;;;;;;;45.87;13.40;;;8.40;99.90;;;;;;5026880;28;20457;-75
2023/01/06 12:11:45;;;;;;;28.93;9.10;;;8.50;99.90;;;;;;5022825;28;20496;-75
2023/01/06 12:14:15;;;;;;;49.20;13.23;;;8.60;99.90;;;;;;5031326;28;20479;-75
2023/01/06 12:16:53;;;;;;;47.40;10.40;;;8.60;99.90;;;;;;5017459;28;20798;-75
2023/01/06 12:19:26;;;;;;;40.42;13.45;;;8.60;99.90;;;;;;5020193;28;20853;-75
2023/01/06 12:21:55;;;;;;;22.57;9.60;;;8.60;99.90;;;;;;5020204;28;20273;-76
2023/01/06 12:24:25;;;;;;;28.73;10.13;;;8.60;99.90;;;;;;5014640;28;20949;-74
2023/01/06 12:26:53;;;;;;;21.58;8.60;;;8.70;99.90;;;;;;5022301;28;20807;-75
2023/01/06 12:29:21;;;;;;;14.93;7.57;;;8.70;99.90;;;;;;5021075;28;20210;-75
2023/01/06 12:32:00;;;;;;;11.10;7.30;;;8.70;99.90;;;;;;5023936;28;20489;-76
2023/01/06 12:34:31;;;;;;;17.03;11.77;;;8.80;99.90;;;;;;5020592;28;20453;-74
2023/01/06 12:37:07;;;;;;;9.53;7.10;;;8.90;99.90;;;;;;5016527;28;20465;-74
2023/01/06 12:39:41;;;;;;;17.00;9.10;;;8.90;99.90;;;;;;5033377;28;20473;-74
2023/01/06 12:42:18;;;;;;;15.97;8.60;;;8.80;99.90;;;;;;5019672;28;20568;-74
2023/01/06 12:44:50;;;;;;;15.23;9.07;;;8.80;99.90;;;;;;5029669;28;20536;-74
2023/01/06 12:47:24;;;;;;;12.90;9.50;;;8.90;99.90;;;;;;5022290;28;20900;-74
2023/01/06 12:49:56;;;;;;;11.93;8.90;;;9.10;99.90;;;;;;5013500;28;20819;-74
2023/01/06 12:52:30;;;;;;;12.40;9.20;;;9.10;99.90;;;;;;5018502;28;20907;-74
2023/01/06 12:54:58;;;;;;;11.53;7.60;;;9.10;99.90;;;;;;5020566;28;20577;-75
2023/01/06 12:57:51;;;;;;;17.30;7.50;;;9.10;99.90;;;;;;5019731;28;20512;-74
2023/01/06 13:00:39;;;;;;;17.37;9.00;;;9.00;99.90;;;;;;5017013;28;20450;-74
2023/01/06 13:03:25;;;;;;;17.60;8.07;;;8.80;99.90;;;;;;5022970;28;20715;-74
2023/01/06 13:06:04;;;;;;;15.90;8.20;;;8.80;99.90;;;;;;5018773;28;20463;-74
2023/01/06 13:08:47;;;;;;;21.03;9.63;;;8.90;99.90;;;;;;5019479;28;20866;-73
2023/01/06 13:11:24;;;;;;;12.13;8.37;;;8.90;99.90;;;;;;5020702;28;20517;-73